Lady Washington — WAA2820 — position and weather

sailwx.info

Track history (hours):
 
Tides and Currents Weather Stations Pressure Air Temp Water Temp Dewpoint Dewpoint Depression Visibility Wind Speed Wind Dir Waves Ship Positions

Lady Washington (United States)

Ship's website: http://www.historicalseaport.org/LadyWashington.htm

Owner: GRAYS HARBOR HISTORICAL SEAPORT AUTHORIT, ABERDEEN, WA. More information available from US FCC via Universal Licensing System and Coast Guard Vessel Documentation Center.

Last reported at 2018-Apr-04 09:47 UTC. Time now 2018-Apr-23 00:20 UTC.
Position N 38°27' W 123°25'.
Warning: this ship's position is 18 days out of date.

Length 37 m.

Type: Sailing vessel. MMSI: 366945360.

Date/timePositionNaut miles runAvg speedWind from/ knotsBaromVisibWave heightAir tempDewpointWater temp
2018-Apr-04 09:47N 38°27' W 123°25'1 2.8
2018-Apr-04 09:30N 38°26' W 123°25'1 2.7
2018-Apr-04 08:58N 38°25' W 123°24'1 2.1
2018-Apr-04 08:30N 38°24' W 123°23'1 2.2
2018-Apr-04 08:00N 38°23' W 123°23'1 1.7
2018-Apr-04 07:30N 38°22' W 123°22'1 1.9
2018-Apr-04 07:00N 38°21' W 123°21'1 1.6
2018-Apr-04 06:28N 38°21' W 123°21'1 1.6
2018-Apr-04 05:58N 38°20' W 123°20'1 2.1
2018-Apr-04 05:30N 38°19' W 123°20'1 1.9
2018-Apr-04 05:00N 38°18' W 123°19'1 2.3
2018-Apr-04 04:30N 38°17' W 123°18'1 2.4
2018-Apr-04 04:00N 38°16' W 123°18'1 2.5
2018-Apr-04 03:30N 38°15' W 123°17'1 2.9
2018-Apr-04 03:00N 38°14' W 123°16'2 3.2
2018-Apr-04 02:29N 38°12' W 123°15'2 3.4
2018-Apr-04 01:59N 38°11' W 123°14'2 3.9
2018-Apr-04 01:29N 38°09' W 123°13'3 4.4
2018-Apr-04 00:56N 38°07' W 123°12'7 4.7
2018-Apr-03 23:29N 38°00' W 123°09'3 4.6
2018-Apr-03 22:54N 37°59' W 123°06'2 4.6
2018-Apr-03 22:30N 37°58' W 123°04'2 4.4
2018-Apr-03 21:58N 37°57' W 123°01'2 4.3
2018-Apr-03 21:26N 37°56' W 122°59'24 5.3
2018-Apr-03 16:58N 37°49' W 122°30'2 5.1
2018-Apr-03 16:30N 37°50' W 122°28'0 0.3
2018-Apr-03 15:18N 37°51' W 122°28'0 0.6
2018-Apr-03 14:53N 37°51' W 122°28'1 0.1
2018-Apr-03 01:11N 37°52' W 122°27'  
2018-Mar-27 16:27N 37°51' W 122°24'3 5.2
2018-Mar-27 15:53N 37°48' W 122°22'2 6.0
2018-Mar-27 15:29N 37°48' W 122°19'2 4.1
2018-Mar-27 14:59N 37°48' W 122°17'0 0.0
2018-Mar-27 13:53N 37°48' W 122°17'0 0.0
2018-Mar-27 11:35N 37°48' W 122°17'0 0.0
2018-Mar-27 11:05N 37°48' W 122°17'0 0.0
2018-Mar-27 10:41N 37°48' W 122°17'0 0.0
2018-Mar-27 10:29N 37°48' W 122°17'0 0.0
2018-Mar-27 09:53N 37°48' W 122°17'0 0.0
2018-Mar-27 09:17N 37°48' W 122°17'0 0.0
2018-Mar-27 08:59N 37°48' W 122°17'0 0.0
2018-Mar-27 08:29N 37°48' W 122°17'0 0.0
2018-Mar-27 07:53N 37°48' W 122°17'0 0.0
2018-Mar-27 07:23N 37°48' W 122°17'0 0.0
2018-Mar-27 06:56N 37°48' W 122°17'0 0.0
2018-Mar-27 06:29N 37°48' W 122°17'0 0.0
2018-Mar-27 06:00N 37°48' W 122°17'0 0.0
2018-Mar-27 05:14N 37°48' W 122°17'0 0.0
2018-Mar-27 04:59N 37°48' W 122°17'0 0.0
2018-Mar-27 04:14N 37°48' W 122°17'0 0.0
2018-Mar-26 23:34N 37°48' W 122°17'0 0.1
2018-Mar-26 21:26N 37°47' W 122°16'2 4.7
2018-Mar-26 20:59N 37°48' W 122°19'3 5.6
2018-Mar-26 20:30N 37°48' W 122°23'2 4.4
2018-Mar-26 20:00N 37°49' W 122°25'2 2.9
2018-Mar-26 19:28N 37°50' W 122°27'0 0.8
2018-Mar-26 19:00N 37°50' W 122°27'0 0.5
2018-Mar-26 18:29N 37°50' W 122°28'0 0.8
2018-Mar-26 17:58N 37°49' W 122°27'0 1.0
2018-Mar-26 17:28N 37°50' W 122°28'0 0.3
2018-Mar-26 17:00N 37°50' W 122°28'1 1.4
2018-Mar-26 16:30N 37°49' W 122°27'3 5.9
2018-Mar-26 15:59N 37°49' W 122°23'3 6.5
2018-Mar-26 15:29N 37°48' W 122°19'2 3.7
2018-Mar-26 14:59N 37°48' W 122°17'0 0.0
2018-Mar-26 14:17N 37°48' W 122°17'0 0.0
2018-Mar-26 13:59N 37°48' W 122°17'0 0.0
2018-Mar-26 13:29N 37°48' W 122°17'0 0.0
2018-Mar-26 12:59N 37°48' W 122°17'0 0.0
2018-Mar-26 12:29N 37°48' W 122°17'0 0.0
2018-Mar-26 11:59N 37°48' W 122°17'0 0.0
2018-Mar-26 11:29N 37°48' W 122°17'0 0.0
2018-Mar-26 10:59N 37°48' W 122°17'0 0.0
2018-Mar-26 10:29N 37°48' W 122°17'0 0.0
2018-Mar-26 09:59N 37°48' W 122°17'0 0.0
2018-Mar-26 09:20N 37°48' W 122°17'0 0.0
2018-Mar-26 08:56N 37°48' W 122°17'0 0.0
2018-Mar-26 08:23N 37°48' W 122°17'0 0.0
2018-Mar-26 07:59N 37°48' W 122°17'0 0.0
2018-Mar-26 07:29N 37°48' W 122°17'0 0.0
2018-Mar-26 06:59N 37°48' W 122°17'0 0.0
2018-Mar-26 06:29N 37°48' W 122°17'0 0.0
2018-Mar-26 05:59N 37°48' W 122°17'0 0.0
2018-Mar-26 05:17N 37°48' W 122°17'0 0.0
2018-Mar-26 04:59N 37°48' W 122°17'0 0.0
2018-Mar-26 04:29N 37°48' W 122°17'0 0.0
2018-Mar-26 03:53N 37°48' W 122°17'0 0.0
2018-Mar-26 03:23N 37°48' W 122°17'0 0.0
2018-Mar-26 02:56N 37°48' W 122°17'0 0.0
2018-Mar-26 02:29N 37°48' W 122°17'0 0.0
2018-Mar-26 01:56N 37°48' W 122°17'0 0.0
2018-Mar-26 01:29N 37°48' W 122°17'0 0.0
2018-Mar-26 00:59N 37°48' W 122°17'0 0.0
2018-Mar-26 00:26N 37°48' W 122°17'0 0.2
2018-Mar-26 00:00N 37°48' W 122°17'2 2.8
2018-Mar-25 23:28N 37°48' W 122°19'2 3.6
2018-Mar-25 23:00N 37°47' W 122°21'0 0.5
2018-Mar-25 22:29N 37°47' W 122°20'1 1.6
2018-Mar-25 22:00N 37°48' W 122°20'2 4.5
2018-Mar-25 21:30N 37°48' W 122°17'0 0.4
2018-Mar-25 20:23N 37°48' W 122°17'0 0.0
2018-Mar-25 19:53N 37°48' W 122°17'1 3.2
2018-Mar-25 19:29N 37°48' W 122°18'2 4.0
2018-Mar-25 19:00N 37°48' W 122°21'1 0.9
2018-Mar-25 18:25N 37°48' W 122°21'0 0.7
2018-Mar-25 17:58N 37°48' W 122°21'2 4.2
2018-Mar-25 17:30N 37°48' W 122°18'1 2.4
2018-Mar-25 16:59N 37°48' W 122°17'0 0.0
2018-Mar-25 16:17N 37°48' W 122°17'0 0.0
2018-Mar-25 15:50N 37°48' W 122°17'0 0.0
2018-Mar-25 15:29N 37°48' W 122°17'0 0.0
2018-Mar-25 14:59N 37°48' W 122°17'0 0.0
2018-Mar-25 14:23N 37°48' W 122°17'0 0.0
2018-Mar-25 13:53N 37°48' W 122°17'0 0.0
2018-Mar-25 13:29N 37°48' W 122°17'0 0.0
2018-Mar-25 12:59N 37°48' W 122°17'0 0.0
2018-Mar-25 12:23N 37°48' W 122°17'0 0.0
2018-Mar-25 11:59N 37°48' W 122°17'0 0.0
2018-Mar-25 11:29N 37°48' W 122°17'0 0.0
2018-Mar-25 10:59N 37°48' W 122°17'0 0.0
2018-Mar-25 10:29N 37°48' W 122°17'  
Track history (hours):
 
Tides and Currents Weather Stations Pressure Air Temp Water Temp Dewpoint Dewpoint Depression Visibility Wind Speed Wind Dir Waves Ship Positions

Lady Washington (United States)

Ship's website: http://www.historicalseaport.org/LadyWashington.htm

Owner: GRAYS HARBOR HISTORICAL SEAPORT AUTHORIT, ABERDEEN, WA. More information available from US FCC via Universal Licensing System and Coast Guard Vessel Documentation Center.

Last reported at 2018-Apr-04 09:47 UTC. Time now 2018-Apr-23 00:20 UTC.
Position N 38°27' W 123°25'.
Warning: this ship's position is 18 days out of date.

Length 37 m.

Type: Sailing vessel. MMSI: 366945360.

Date/timePositionNaut miles runAvg speedWind from/ knotsBaromVisibWave heightAir tempDewpointWater temp
2018-Apr-04 09:47N 38°27' W 123°25'1 2.8
2018-Apr-04 09:30N 38°26' W 123°25'1 2.7
2018-Apr-04 08:58N 38°25' W 123°24'1 2.1
2018-Apr-04 08:30N 38°24' W 123°23'1 2.2
2018-Apr-04 08:00N 38°23' W 123°23'1 1.7
2018-Apr-04 07:30N 38°22' W 123°22'1 1.9
2018-Apr-04 07:00N 38°21' W 123°21'1 1.6
2018-Apr-04 06:28N 38°21' W 123°21'1 1.6
2018-Apr-04 05:58N 38°20' W 123°20'1 2.1
2018-Apr-04 05:30N 38°19' W 123°20'1 1.9
2018-Apr-04 05:00N 38°18' W 123°19'1 2.3
2018-Apr-04 04:30N 38°17' W 123°18'1 2.4
2018-Apr-04 04:00N 38°16' W 123°18'1 2.5
2018-Apr-04 03:30N 38°15' W 123°17'1 2.9
2018-Apr-04 03:00N 38°14' W 123°16'2 3.2
2018-Apr-04 02:29N 38°12' W 123°15'2 3.4
2018-Apr-04 01:59N 38°11' W 123°14'2 3.9
2018-Apr-04 01:29N 38°09' W 123°13'3 4.4
2018-Apr-04 00:56N 38°07' W 123°12'7 4.7
2018-Apr-03 23:29N 38°00' W 123°09'3 4.6
2018-Apr-03 22:54N 37°59' W 123°06'2 4.6
2018-Apr-03 22:30N 37°58' W 123°04'2 4.4
2018-Apr-03 21:58N 37°57' W 123°01'2 4.3
2018-Apr-03 21:26N 37°56' W 122°59'24 5.3
2018-Apr-03 16:58N 37°49' W 122°30'2 5.1
2018-Apr-03 16:30N 37°50' W 122°28'0 0.3
2018-Apr-03 15:18N 37°51' W 122°28'0 0.6
2018-Apr-03 14:53N 37°51' W 122°28'1 0.1
2018-Apr-03 01:11N 37°52' W 122°27'  
2018-Mar-27 16:27N 37°51' W 122°24'3 5.2
2018-Mar-27 15:53N 37°48' W 122°22'2 6.0
2018-Mar-27 15:29N 37°48' W 122°19'2 4.1
2018-Mar-27 14:59N 37°48' W 122°17'0 0.0
2018-Mar-27 13:53N 37°48' W 122°17'0 0.0
2018-Mar-27 11:35N 37°48' W 122°17'0 0.0
2018-Mar-27 11:05N 37°48' W 122°17'0 0.0
2018-Mar-27 10:41N 37°48' W 122°17'0 0.0
2018-Mar-27 10:29N 37°48' W 122°17'0 0.0
2018-Mar-27 09:53N 37°48' W 122°17'0 0.0
2018-Mar-27 09:17N 37°48' W 122°17'0 0.0
2018-Mar-27 08:59N 37°48' W 122°17'0 0.0
2018-Mar-27 08:29N 37°48' W 122°17'0 0.0
2018-Mar-27 07:53N 37°48' W 122°17'0 0.0
2018-Mar-27 07:23N 37°48' W 122°17'0 0.0
2018-Mar-27 06:56N 37°48' W 122°17'0 0.0
2018-Mar-27 06:29N 37°48' W 122°17'0 0.0
2018-Mar-27 06:00N 37°48' W 122°17'0 0.0
2018-Mar-27 05:14N 37°48' W 122°17'0 0.0
2018-Mar-27 04:59N 37°48' W 122°17'0 0.0
2018-Mar-27 04:14N 37°48' W 122°17'0 0.0
2018-Mar-26 23:34N 37°48' W 122°17'0 0.1
2018-Mar-26 21:26N 37°47' W 122°16'2 4.7
2018-Mar-26 20:59N 37°48' W 122°19'3 5.6
2018-Mar-26 20:30N 37°48' W 122°23'2 4.4
2018-Mar-26 20:00N 37°49' W 122°25'2 2.9
2018-Mar-26 19:28N 37°50' W 122°27'0 0.8
2018-Mar-26 19:00N 37°50' W 122°27'0 0.5
2018-Mar-26 18:29N 37°50' W 122°28'0 0.8
2018-Mar-26 17:58N 37°49' W 122°27'0 1.0
2018-Mar-26 17:28N 37°50' W 122°28'0 0.3
2018-Mar-26 17:00N 37°50' W 122°28'1 1.4
2018-Mar-26 16:30N 37°49' W 122°27'3 5.9
2018-Mar-26 15:59N 37°49' W 122°23'3 6.5
2018-Mar-26 15:29N 37°48' W 122°19'2 3.7
2018-Mar-26 14:59N 37°48' W 122°17'0 0.0
2018-Mar-26 14:17N 37°48' W 122°17'0 0.0
2018-Mar-26 13:59N 37°48' W 122°17'0 0.0
2018-Mar-26 13:29N 37°48' W 122°17'0 0.0
2018-Mar-26 12:59N 37°48' W 122°17'0 0.0
2018-Mar-26 12:29N 37°48' W 122°17'0 0.0
2018-Mar-26 11:59N 37°48' W 122°17'0 0.0
2018-Mar-26 11:29N 37°48' W 122°17'0 0.0
2018-Mar-26 10:59N 37°48' W 122°17'0 0.0
2018-Mar-26 10:29N 37°48' W 122°17'0 0.0
2018-Mar-26 09:59N 37°48' W 122°17'0 0.0
2018-Mar-26 09:20N 37°48' W 122°17'0 0.0
2018-Mar-26 08:56N 37°48' W 122°17'0 0.0
2018-Mar-26 08:23N 37°48' W 122°17'0 0.0
2018-Mar-26 07:59N 37°48' W 122°17'0 0.0
2018-Mar-26 07:29N 37°48' W 122°17'0 0.0
2018-Mar-26 06:59N 37°48' W 122°17'0 0.0
2018-Mar-26 06:29N 37°48' W 122°17'0 0.0
2018-Mar-26 05:59N 37°48' W 122°17'0 0.0
2018-Mar-26 05:17N 37°48' W 122°17'0 0.0
2018-Mar-26 04:59N 37°48' W 122°17'0 0.0
2018-Mar-26 04:29N 37°48' W 122°17'0 0.0
2018-Mar-26 03:53N 37°48' W 122°17'0 0.0
2018-Mar-26 03:23N 37°48' W 122°17'0 0.0
2018-Mar-26 02:56N 37°48' W 122°17'0 0.0
2018-Mar-26 02:29N 37°48' W 122°17'0 0.0
2018-Mar-26 01:56N 37°48' W 122°17'0 0.0
2018-Mar-26 01:29N 37°48' W 122°17'0 0.0
2018-Mar-26 00:59N 37°48' W 122°17'0 0.0
2018-Mar-26 00:26N 37°48' W 122°17'0 0.2
2018-Mar-26 00:00N 37°48' W 122°17'2 2.8
2018-Mar-25 23:28N 37°48' W 122°19'2 3.6
2018-Mar-25 23:00N 37°47' W 122°21'0 0.5
2018-Mar-25 22:29N 37°47' W 122°20'1 1.6
2018-Mar-25 22:00N 37°48' W 122°20'2 4.5
2018-Mar-25 21:30N 37°48' W 122°17'0 0.4
2018-Mar-25 20:23N 37°48' W 122°17'0 0.0
2018-Mar-25 19:53N 37°48' W 122°17'1 3.2
2018-Mar-25 19:29N 37°48' W 122°18'2 4.0
2018-Mar-25 19:00N 37°48' W 122°21'1 0.9
2018-Mar-25 18:25N 37°48' W 122°21'0 0.7
2018-Mar-25 17:58N 37°48' W 122°21'2 4.2
2018-Mar-25 17:30N 37°48' W 122°18'1 2.4
2018-Mar-25 16:59N 37°48' W 122°17'0 0.0
2018-Mar-25 16:17N 37°48' W 122°17'0 0.0
2018-Mar-25 15:50N 37°48' W 122°17'0 0.0
2018-Mar-25 15:29N 37°48' W 122°17'0 0.0
2018-Mar-25 14:59N 37°48' W 122°17'0 0.0
2018-Mar-25 14:23N 37°48' W 122°17'0 0.0
2018-Mar-25 13:53N 37°48' W 122°17'0 0.0
2018-Mar-25 13:29N 37°48' W 122°17'0 0.0
2018-Mar-25 12:59N 37°48' W 122°17'0 0.0
2018-Mar-25 12:23N 37°48' W 122°17'0 0.0
2018-Mar-25 11:59N 37°48' W 122°17'0 0.0
2018-Mar-25 11:29N 37°48' W 122°17'0 0.0
2018-Mar-25 10:59N 37°48' W 122°17'0 0.0
2018-Mar-25 10:29N 37°48' W 122°17'  

Dump ship's entire track history